createdAt,value
2022-11-14T00:01:35.962Z,4.79
2022-11-14T00:06:47.655Z,4.90
2022-11-14T00:11:50.332Z,4.77
2022-11-14T00:16:52.934Z,4.87
2022-11-14T00:21:55.533Z,4.85
2022-11-14T00:26:58.513Z,4.71
2022-11-14T00:32:01.327Z,4.57
2022-11-14T00:37:03.941Z,4.60
2022-11-14T00:42:06.539Z,4.42
2022-11-14T00:47:09.178Z,4.28
2022-11-14T00:52:11.983Z,4.12
2022-11-14T00:57:14.639Z,4.16
2022-11-14T01:02:17.589Z,4.07
2022-11-14T01:07:20.266Z,4.08
2022-11-14T01:12:22.937Z,4.11
2022-11-14T01:17:28.505Z,4.16
2022-11-14T01:22:31.903Z,4.24
2022-11-14T01:27:34.974Z,4.26
2022-11-14T01:32:37.675Z,4.20
2022-11-14T01:37:40.948Z,4.23
2022-11-14T01:42:43.574Z,4.29
2022-11-14T01:47:46.276Z,4.42
2022-11-14T01:52:48.851Z,4.38
2022-11-14T01:57:51.453Z,4.44
2022-11-14T02:03:04.038Z,4.27
2022-11-14T02:08:06.658Z,4.15
2022-11-14T02:13:09.788Z,4.02
2022-11-14T02:18:12.475Z,4.05
2022-11-14T02:23:17.129Z,4.03
2022-11-14T02:28:20.624Z,4.01
2022-11-14T02:33:23.209Z,4.02
2022-11-14T02:38:25.845Z,4.02
2022-11-14T02:43:28.543Z,4.02
2022-11-14T02:48:31.524Z,4.03
2022-11-14T02:53:36.558Z,4.08
2022-11-14T02:58:39.186Z,4.06
2022-11-14T03:03:42.123Z,4.12
2022-11-14T03:08:44.837Z,3.97
2022-11-14T03:13:47.457Z,3.63
2022-11-14T03:18:50.088Z,3.74
2022-11-14T03:23:52.829Z,3.69
2022-11-14T03:28:56.171Z,3.65
2022-11-14T03:33:58.796Z,3.54
2022-11-14T03:39:01.356Z,3.28
2022-11-14T03:44:04.455Z,3.32
2022-11-14T03:49:07.639Z,3.23
2022-11-14T03:54:11.801Z,3.29
2022-11-14T03:59:14.935Z,3.37
2022-11-14T04:04:19.180Z,3.40
2022-11-14T04:09:22.687Z,3.52
2022-11-14T04:14:25.799Z,3.55
2022-11-14T04:19:28.890Z,3.50
2022-11-14T04:24:31.955Z,3.62
2022-11-14T04:29:35.012Z,3.47
2022-11-14T04:34:38.196Z,3.40
2022-11-14T04:39:41.609Z,3.43
2022-11-14T04:44:44.740Z,3.33
2022-11-14T04:49:47.853Z,3.14
2022-11-14T04:54:50.948Z,3.36
2022-11-14T04:59:54.173Z,3.08
2022-11-14T05:04:57.249Z,3.25
2022-11-14T05:10:00.484Z,3.16
2022-11-14T05:15:03.593Z,3.19
2022-11-14T05:20:06.842Z,3.15
2022-11-14T05:25:09.957Z,3.28
2022-11-14T05:30:13.160Z,3.38
2022-11-14T05:35:16.692Z,3.42
2022-11-14T05:40:19.999Z,3.50
2022-11-14T05:45:23.187Z,3.74
2022-11-14T05:50:26.923Z,3.63
2022-11-14T05:55:30.052Z,3.64
2022-11-14T06:00:39.456Z,3.64
2022-11-14T06:05:45.592Z,3.44
2022-11-14T06:10:48.716Z,3.44
2022-11-14T06:15:51.852Z,3.43
2022-11-14T06:20:57.744Z,3.24
2022-11-14T06:26:01.652Z,3.04
2022-11-14T06:31:04.928Z,3.10
2022-11-14T06:36:08.070Z,3.41
2022-11-14T06:41:11.135Z,3.50
2022-11-14T06:46:14.286Z,3.52
2022-11-14T06:51:17.880Z,3.61
2022-11-14T06:56:21.246Z,3.79
2022-11-14T07:01:25.891Z,3.76
2022-11-14T07:06:29.056Z,3.50
2022-11-14T07:11:33.176Z,3.71
2022-11-14T07:16:36.429Z,3.77
2022-11-14T07:21:39.660Z,3.77
2022-11-14T07:26:42.760Z,3.82
2022-11-14T07:31:46.003Z,3.84
2022-11-14T07:36:50.620Z,3.96
2022-11-14T07:41:54.015Z,3.82
2022-11-14T07:46:57.272Z,3.88
2022-11-14T07:52:00.641Z,3.67
2022-11-14T07:57:03.784Z,3.80
2022-11-14T08:02:06.961Z,3.66
2022-11-14T08:07:10.093Z,3.74
2022-11-14T08:12:13.765Z,3.60
2022-11-14T08:17:17.233Z,3.56
2022-11-14T08:22:20.429Z,3.29
2022-11-14T08:27:23.530Z,3.35
2022-11-14T08:32:26.636Z,3.38
2022-11-14T08:37:29.732Z,3.55
2022-11-14T08:42:32.941Z,3.45
2022-11-14T08:47:36.602Z,3.52
2022-11-14T08:52:39.872Z,3.52
2022-11-14T08:57:49.057Z,3.50
2022-11-14T09:02:52.797Z,3.43
2022-11-14T09:08:00.460Z,3.61
2022-11-14T09:13:03.741Z,3.94
2022-11-14T09:18:06.911Z,4.14
2022-11-14T09:23:10.159Z,4.31
2022-11-14T09:28:13.385Z,4.64
2022-11-14T09:33:16.483Z,5.02
2022-11-14T09:38:19.562Z,5.15
2022-11-14T09:43:22.621Z,5.37
2022-11-14T09:48:31.233Z,5.40
2022-11-14T09:53:34.635Z,5.57
2022-11-14T09:58:37.875Z,5.79
2022-11-14T10:03:42.654Z,5.67
2022-11-14T10:08:45.889Z,5.89
2022-11-14T10:13:49.630Z,6.00
2022-11-14T10:18:52.744Z,6.11
2022-11-14T10:23:55.822Z,6.28
2022-11-14T10:28:59.334Z,6.40
2022-11-14T10:34:02.649Z,6.41
2022-11-14T10:39:05.816Z,6.67
2022-11-14T10:44:08.977Z,6.94
2022-11-14T10:49:12.103Z,7.01
2022-11-14T10:54:15.355Z,7.06
2022-11-14T10:59:18.541Z,7.07
2022-11-14T11:04:22.027Z,7.12
2022-11-14T11:09:45.718Z,7.13
2022-11-14T11:14:49.385Z,7.02
2022-11-14T11:19:52.484Z,6.74
2022-11-14T11:24:55.562Z,6.64
2022-11-14T11:29:59.036Z,6.45
2022-11-14T11:35:02.168Z,6.29
2022-11-14T11:40:07.481Z,6.24
2022-11-14T11:45:10.539Z,6.27
2022-11-14T11:50:13.642Z,6.33
2022-11-14T11:55:19.881Z,6.41
2022-11-14T12:00:23.111Z,6.60
2022-11-14T12:05:26.172Z,6.86
2022-11-14T12:10:29.906Z,7.25
2022-11-14T12:15:33.073Z,7.54
2022-11-14T12:20:36.117Z,7.81
2022-11-14T12:25:39.496Z,7.91
2022-11-14T12:30:42.645Z,8.20
2022-11-14T12:35:45.761Z,8.40
2022-11-14T12:40:48.960Z,8.55
2022-11-14T12:45:52.087Z,8.52
2022-11-14T12:50:55.167Z,8.80
2022-11-14T12:55:58.407Z,8.87
2022-11-14T13:01:02.232Z,8.95
2022-11-14T13:06:05.332Z,9.13
2022-11-14T13:11:08.390Z,9.13
2022-11-14T13:16:34.307Z,9.25
2022-11-14T13:21:49.559Z,9.44
2022-11-14T13:26:52.693Z,9.64
2022-11-14T13:31:55.772Z,9.93
2022-11-14T13:36:58.848Z,10.19
2022-11-14T13:42:02.027Z,10.35
2022-11-14T13:47:09.511Z,10.43
2022-11-14T13:52:12.646Z,10.16
2022-11-14T13:57:16.100Z,10.25
2022-11-14T14:02:19.505Z,9.97
2022-11-14T14:07:22.624Z,9.60
2022-11-14T14:12:25.804Z,9.54
2022-11-14T14:17:28.980Z,9.58
2022-11-14T14:22:32.109Z,9.43
2022-11-14T14:27:35.340Z,9.40
2022-11-14T14:32:38.551Z,9.22
2022-11-14T14:37:45.215Z,9.00
2022-11-14T14:42:49.199Z,8.86
2022-11-14T14:47:53.434Z,8.88
2022-11-14T14:52:56.633Z,8.67
2022-11-14T14:57:59.805Z,8.55
2022-11-14T15:03:02.871Z,8.49
2022-11-14T15:08:05.919Z,8.29
2022-11-14T15:13:09.068Z,8.21
2022-11-14T15:18:12.309Z,8.02
2022-11-14T15:23:15.514Z,8.01
2022-11-14T15:28:18.728Z,7.82
2022-11-14T15:33:21.826Z,7.65
2022-11-14T15:43:50.234Z,7.30
2022-11-14T15:48:53.437Z,7.33
2022-11-14T15:53:56.661Z,7.27
2022-11-14T15:59:04.379Z,7.28
2022-11-14T16:04:07.452Z,7.17
2022-11-14T16:09:10.505Z,7.04
2022-11-14T16:14:13.651Z,6.93
2022-11-14T16:19:17.153Z,6.95
2022-11-14T16:24:20.234Z,6.95
2022-11-14T16:29:24.416Z,6.87
2022-11-14T16:34:27.563Z,6.78
2022-11-14T16:39:30.723Z,6.86
2022-11-14T16:44:42.862Z,6.88
2022-11-14T16:49:50.007Z,6.86
2022-11-14T16:54:53.036Z,6.77
2022-11-14T16:59:58.107Z,6.77
2022-11-14T17:05:01.676Z,6.82
2022-11-14T17:10:05.362Z,6.98
2022-11-14T17:15:08.504Z,6.89
2022-11-14T17:20:11.914Z,6.59
2022-11-14T17:25:15.332Z,6.49
2022-11-14T17:30:18.469Z,6.38
2022-11-14T17:35:21.620Z,6.39
2022-11-14T17:40:25.221Z,6.38
2022-11-14T17:45:28.324Z,6.53
2022-11-14T17:50:37.759Z,6.49
2022-11-14T17:55:41.143Z,6.56
2022-11-14T18:00:44.233Z,6.54
2022-11-14T18:05:47.300Z,6.50
2022-11-14T18:10:50.870Z,6.42
2022-11-14T18:15:53.969Z,6.43
2022-11-14T18:20:57.060Z,6.42
2022-11-14T18:26:00.319Z,6.27
2022-11-14T18:31:07.238Z,6.16
2022-11-14T18:36:11.415Z,6.13
2022-11-14T18:41:14.507Z,6.06
2022-11-14T18:46:17.604Z,6.13
2022-11-14T18:51:20.819Z,6.09
2022-11-14T18:56:25.396Z,6.09
2022-11-14T19:01:29.633Z,6.17
2022-11-14T19:06:33.001Z,6.09
2022-11-14T19:11:53.840Z,6.15
2022-11-14T19:16:56.927Z,6.04
2022-11-14T19:22:00.400Z,5.93
2022-11-14T19:27:03.621Z,5.77
2022-11-14T19:32:06.695Z,5.65
2022-11-14T19:37:10.368Z,5.56
2022-11-14T19:42:14.699Z,5.44
2022-11-14T19:47:17.812Z,5.31
2022-11-14T19:52:21.006Z,5.24
2022-11-14T19:57:24.527Z,5.28
2022-11-14T20:02:29.433Z,5.24
2022-11-14T20:07:33.064Z,5.23
2022-11-14T20:12:36.202Z,5.09
2022-11-14T20:17:39.502Z,5.27
2022-11-14T20:22:43.213Z,5.26
2022-11-14T20:27:46.332Z,5.21
2022-11-14T20:32:49.491Z,5.21
2022-11-14T20:37:52.578Z,5.14
2022-11-14T20:43:00.403Z,5.14
2022-11-14T20:48:03.656Z,5.05
2022-11-14T20:53:06.759Z,4.99
2022-11-14T20:58:09.987Z,4.86
2022-11-14T21:03:13.277Z,4.76
2022-11-14T21:08:17.512Z,4.66
2022-11-14T21:13:38.433Z,4.71
2022-11-14T21:18:45.206Z,4.67
2022-11-14T21:23:50.970Z,4.47
2022-11-14T21:28:54.047Z,4.52
2022-11-14T21:33:57.731Z,4.50
2022-11-14T21:39:00.801Z,4.56
2022-11-14T21:44:04.398Z,4.51
2022-11-14T21:49:07.448Z,4.37
2022-11-14T21:54:10.856Z,4.43
2022-11-14T21:59:15.120Z,4.43
2022-11-14T22:04:18.903Z,4.30
2022-11-14T22:09:22.209Z,4.32
2022-11-14T22:14:25.374Z,4.32
2022-11-14T22:19:28.447Z,4.30
2022-11-14T22:24:32.258Z,4.34
2022-11-14T22:29:35.552Z,4.23
2022-11-14T22:34:38.607Z,4.31
2022-11-14T22:39:41.706Z,4.27
2022-11-14T22:44:44.765Z,4.23
2022-11-14T22:49:47.905Z,4.25
2022-11-14T22:54:51.049Z,4.09
2022-11-14T22:59:54.172Z,4.24
2022-11-14T23:04:57.231Z,4.26
2022-11-14T23:10:00.464Z,4.17
2022-11-14T23:15:03.565Z,4.16
2022-11-14T23:20:06.642Z,4.05
2022-11-14T23:25:09.755Z,3.97
2022-11-14T23:30:12.856Z,3.87
2022-11-14T23:35:16.318Z,3.87
2022-11-14T23:40:19.339Z,3.91
2022-11-14T23:45:22.420Z,3.90
2022-11-14T23:50:25.477Z,3.84
2022-11-14T23:55:28.523Z,3.84
